Aviation Digital Data Service (ADDS)

Output produced by METARs form (1938 UTC 23 January 2019)
found at http://www.aviationweather.gov/metar/data/
 
METAR text: KGRB 231853Z 32010KT 1/2SM SN VV014 M06/M08 A2970 RMK AO2 SLP068 P0003 T10561083 RVRNO
Conditions at: KGRB (ASHWAUBENON , WI, US) observed 1853 UTC 23 January 2019
Temperature: -5.6°C (22°F)
Dewpoint: -8.3°C (17°F) [RH = 81%]
Pressure (altimeter): 29.70 inches Hg (1005.8 mb)
[Sea-level pressure: 1006.8 mb]
Winds: from the NW (320 degrees) at 12 MPH (10 knots; 5.1 m/s)
Visibility: 0.50 miles (0.80 km)
Ceiling: indefinite ceiling with vertical visibility of 1400 feet AGL
Clouds: obscured sky
Weather: SN  (moderate snow)

METAR text: KGRB 231837Z 32010KT 1/2SM SN VV016 M06/M08 A2970 RMK AO2 P0001 T10561083 RVRNO
Conditions at: KGRB (ASHWAUBENON , WI, US) observed 1837 UTC 23 January 2019
Temperature: -5.6°C (22°F)
Dewpoint: -8.3°C (17°F) [RH = 81%]
Pressure (altimeter): 29.70 inches Hg (1005.8 mb)
Winds: from the NW (320 degrees) at 12 MPH (10 knots; 5.1 m/s)
Visibility: 0.50 miles (0.80 km)
Ceiling: indefinite ceiling with vertical visibility of 1600 feet AGL
Clouds: obscured sky
Weather: SN  (moderate snow)

METAR text: KGRB 231753Z 32010KT 1 1/4SM -SN BKN017 OVC025 M05/M08 A2973 RMK AO2 SLP079 P0003 60029 T10501083 11050 21067 58012
Conditions at: KGRB (ASHWAUBENON , WI, US) observed 1753 UTC 23 January 2019
Temperature: -5.0°C (23°F)
Dewpoint: -8.3°C (17°F) [RH = 78%]
Pressure (altimeter): 29.73 inches Hg (1006.9 mb)
[Sea-level pressure: 1007.9 mb]
Winds: from the NW (320 degrees) at 12 MPH (10 knots; 5.1 m/s)
Visibility: 1.25 miles (2.01 km)
Ceiling: 1700 feet AGL
Clouds: broken clouds at 1700 feet AGL
overcast cloud deck at 2500 feet AGL
Weather: -SN  (light snow)

METAR text: KGRB 231745Z 32008KT 1SM -SN VV016 M06/M08 A2973 RMK AO2 P0003 T10561083 RVRNO
Conditions at: KGRB (ASHWAUBENON , WI, US) observed 1745 UTC 23 January 2019
Temperature: -5.6°C (22°F)
Dewpoint: -8.3°C (17°F) [RH = 81%]
Pressure (altimeter): 29.73 inches Hg (1006.9 mb)
Winds: from the NW (320 degrees) at 9 MPH (8 knots; 4.1 m/s)
Visibility: 1.00 miles (1.61 km)
Ceiling: indefinite ceiling with vertical visibility of 1600 feet AGL
Clouds: obscured sky
Weather: -SN  (light snow)

METAR text: KGRB 231736Z 32009KT 3/4SM -SN VV013 M06/M08 A2974 RMK AO2 P0003 T10561083 RVRNO
Conditions at: KGRB (ASHWAUBENON , WI, US) observed 1736 UTC 23 January 2019
Temperature: -5.6°C (22°F)
Dewpoint: -8.3°C (17°F) [RH = 81%]
Pressure (altimeter): 29.74 inches Hg (1007.2 mb)
Winds: from the NW (320 degrees) at 10 MPH (9 knots; 4.6 m/s)
Visibility: 0.75 miles (1.21 km)
Ceiling: indefinite ceiling with vertical visibility of 1300 feet AGL
Clouds: obscured sky
Weather: -SN  (light snow)

METAR text: KGRB 231721Z 33009KT 3/4SM -SN VV015 M06/M08 A2974 RMK AO2 P0002 T10561083 RVRNO
Conditions at: KGRB (ASHWAUBENON , WI, US) observed 1721 UTC 23 January 2019
Temperature: -5.6°C (22°F)
Dewpoint: -8.3°C (17°F) [RH = 81%]
Pressure (altimeter): 29.74 inches Hg (1007.2 mb)
Winds: from the NNW (330 degrees) at 10 MPH (9 knots; 4.6 m/s)
Visibility: 0.75 miles (1.21 km)
Ceiling: indefinite ceiling with vertical visibility of 1500 feet AGL
Clouds: obscured sky
Weather: -SN  (light snow)

METAR text: KGRB 231700Z 33009KT 3/4SM -SN VV012 M06/M08 A2975 RMK AO2 P0001 T10561083 RVRNO
Conditions at: KGRB (ASHWAUBENON , WI, US) observed 1700 UTC 23 January 2019
Temperature: -5.6°C (22°F)
Dewpoint: -8.3°C (17°F) [RH = 81%]
Pressure (altimeter): 29.75 inches Hg (1007.5 mb)
Winds: from the NNW (330 degrees) at 10 MPH (9 knots; 4.6 m/s)
Visibility: 0.75 miles (1.21 km)
Ceiling: indefinite ceiling with vertical visibility of 1200 feet AGL
Clouds: obscured sky
Weather: -SN  (light snow)

METAR text: KGRB 231653Z 33008KT 1/4SM +SN VV010 M06/M08 A2975 RMK AO2 SLP086 P0009 T10561083 RVRNO
Conditions at: KGRB (ASHWAUBENON , WI, US) observed 1653 UTC 23 January 2019
Temperature: -5.6°C (22°F)
Dewpoint: -8.3°C (17°F) [RH = 81%]
Pressure (altimeter): 29.75 inches Hg (1007.5 mb)
[Sea-level pressure: 1008.6 mb]
Winds: from the NNW (330 degrees) at 9 MPH (8 knots; 4.1 m/s)
Visibility: 0.25 miles (0.40 km)
Ceiling: indefinite ceiling with vertical visibility of 1000 feet AGL
Clouds: obscured sky
Weather: +SN  (heavy snow)

METAR text: KGRB 231553Z 34008KT 1/4SM +SN FZFG VV006 M07/M09 A2977 RMK AO2 SNEMMB23 SLP092 P0007 T10671089 RVRNO $
Conditions at: KGRB (ASHWAUBENON , WI, US) observed 1553 UTC 23 January 2019
Temperature: -6.7°C (20°F)
Dewpoint: -8.9°C (16°F) [RH = 84%]
Pressure (altimeter): 29.77 inches Hg (1008.2 mb)
[Sea-level pressure: 1009.2 mb]
Winds: from the NNW (340 degrees) at 9 MPH (8 knots; 4.1 m/s)
Visibility: 0.25 miles (0.40 km)
Ceiling: indefinite ceiling with vertical visibility of 600 feet AGL
Clouds: obscured sky
Weather: +SN FZFG  (heavy snow, freezing fog)
SOME DATA ABOVE MAY BE INACCURATE!!!
"$" is an indication the sensor requires maintenance

METAR text: KGRB 231551Z 34007KT 1/4SM +SN FZFG VV006 M07/M09 A2977 RMK AO2 SNEMMB23 P0007 RVRNO $
Conditions at: KGRB (ASHWAUBENON , WI, US) observed 1551 UTC 23 January 2019
Temperature: -7.0°C (19°F)
Dewpoint: -9.0°C (16°F) [RH = 86%]
Pressure (altimeter): 29.77 inches Hg (1008.2 mb)
Winds: from the NNW (340 degrees) at 8 MPH (7 knots; 3.6 m/s)
Visibility: 0.25 miles (0.40 km)
Ceiling: indefinite ceiling with vertical visibility of 600 feet AGL
Clouds: obscured sky
Weather: +SN FZFG  (heavy snow, freezing fog)
SOME DATA ABOVE MAY BE INACCURATE!!!
"$" is an indication the sensor requires maintenance

METAR text: KGRB 231534Z 34008KT 1/2SM SN FZFG VV008 M07/M09 A2977 RMK AO2 SNEMMB23 P0005 T10671089 RVRNO $
Conditions at: KGRB (ASHWAUBENON , WI, US) observed 1534 UTC 23 January 2019
Temperature: -6.7°C (20°F)
Dewpoint: -8.9°C (16°F) [RH = 84%]
Pressure (altimeter): 29.77 inches Hg (1008.2 mb)
Winds: from the NNW (340 degrees) at 9 MPH (8 knots; 4.1 m/s)
Visibility: 0.50 miles (0.80 km)
Ceiling: indefinite ceiling with vertical visibility of 800 feet AGL
Clouds: obscured sky
Weather: SN FZFG  (moderate snow, freezing fog)
SOME DATA ABOVE MAY BE INACCURATE!!!
"$" is an indication the sensor requires maintenance

METAR text: KGRB 231518Z 34007KT 3/4SM BR VV010 M07/M09 A2977 RMK AO2 SNEMM P0002 T10671089 RVRNO $
Conditions at: KGRB (ASHWAUBENON , WI, US) observed 1518 UTC 23 January 2019
Temperature: -6.7°C (20°F)
Dewpoint: -8.9°C (16°F) [RH = 84%]
Pressure (altimeter): 29.77 inches Hg (1008.2 mb)
Winds: from the NNW (340 degrees) at 8 MPH (7 knots; 3.6 m/s)
Visibility: 0.75 miles (1.21 km)
Ceiling: indefinite ceiling with vertical visibility of 1000 feet AGL
Clouds: obscured sky
Weather: BR  (mist)
SOME DATA ABOVE MAY BE INACCURATE!!!
"$" is an indication the sensor requires maintenance

METAR text: KGRB 231453Z 34006KT 1/2SM SN FZFG VV007 M07/M09 A2978 RMK AO2 SLP095 P0005 60010 T10671089 56020 RVRNO
Conditions at: KGRB (ASHWAUBENON , WI, US) observed 1453 UTC 23 January 2019
Temperature: -6.7°C (20°F)
Dewpoint: -8.9°C (16°F) [RH = 84%]
Pressure (altimeter): 29.78 inches Hg (1008.5 mb)
[Sea-level pressure: 1009.5 mb]
Winds: from the NNW (340 degrees) at 7 MPH (6 knots; 3.1 m/s)
Visibility: 0.50 miles (0.80 km)
Ceiling: indefinite ceiling with vertical visibility of 700 feet AGL
Clouds: obscured sky
Weather: SN FZFG  (moderate snow, freezing fog)

METAR text: KGRB 231446Z 34007KT 1/2SM SN FZFG VV008 M07/M09 A2978 RMK AO2 P0004 T10671089 RVRNO
Conditions at: KGRB (ASHWAUBENON , WI, US) observed 1446 UTC 23 January 2019
Temperature: -6.7°C (20°F)
Dewpoint: -8.9°C (16°F) [RH = 84%]
Pressure (altimeter): 29.78 inches Hg (1008.5 mb)
Winds: from the NNW (340 degrees) at 8 MPH (7 knots; 3.6 m/s)
Visibility: 0.50 miles (0.80 km)
Ceiling: indefinite ceiling with vertical visibility of 800 feet AGL
Clouds: obscured sky
Weather: SN FZFG  (moderate snow, freezing fog)

METAR text: KGRB 231430Z 34010KT 3/4SM -SN BR VV012 M07/M09 A2978 RMK AO2 P0003 T10671089 RVRNO
Conditions at: KGRB (ASHWAUBENON , WI, US) observed 1430 UTC 23 January 2019
Temperature: -6.7°C (20°F)
Dewpoint: -8.9°C (16°F) [RH = 84%]
Pressure (altimeter): 29.78 inches Hg (1008.5 mb)
Winds: from the NNW (340 degrees) at 12 MPH (10 knots; 5.1 m/s)
Visibility: 0.75 miles (1.21 km)
Ceiling: indefinite ceiling with vertical visibility of 1200 feet AGL
Clouds: obscured sky
Weather: -SN BR  (light snow, mist)

METAR text: KGRB 231405Z 36009KT 1SM -SN BR VV014 M07/M09 A2978 RMK AO2 PRESFR P0001 T10671089 RVRNO
Conditions at: KGRB (ASHWAUBENON , WI, US) observed 1405 UTC 23 January 2019
Temperature: -6.7°C (20°F)
Dewpoint: -8.9°C (16°F) [RH = 84%]
Pressure (altimeter): 29.78 inches Hg (1008.5 mb)
Winds: from the N (360 degrees) at 10 MPH (9 knots; 4.6 m/s)
Visibility: 1.00 miles (1.61 km)
Ceiling: indefinite ceiling with vertical visibility of 1400 feet AGL
Clouds: obscured sky
Weather: -SN BR  (light snow, mist)

METAR text: KGRB 231353Z 36008KT 3/4SM -SN BR VV013 M07/M09 A2979 RMK AO2 SLP100 P0004 T10671089 RVRNO
Conditions at: KGRB (ASHWAUBENON , WI, US) observed 1353 UTC 23 January 2019
Temperature: -6.7°C (20°F)
Dewpoint: -8.9°C (16°F) [RH = 84%]
Pressure (altimeter): 29.79 inches Hg (1008.9 mb)
[Sea-level pressure: 1010.0 mb]
Winds: from the N (360 degrees) at 9 MPH (8 knots; 4.1 m/s)
Visibility: 0.75 miles (1.21 km)
Ceiling: indefinite ceiling with vertical visibility of 1300 feet AGL
Clouds: obscured sky
Weather: -SN BR  (light snow, mist)

METAR text: KGRB 231335Z 36007KT 3/4SM -SN BR VV013 M07/M09 A2980 RMK AO2 P0002 T10671089 RVRNO
Conditions at: KGRB (ASHWAUBENON , WI, US) observed 1335 UTC 23 January 2019
Temperature: -6.7°C (20°F)
Dewpoint: -8.9°C (16°F) [RH = 84%]
Pressure (altimeter): 29.80 inches Hg (1009.2 mb)
Winds: from the N (360 degrees) at 8 MPH (7 knots; 3.6 m/s)
Visibility: 0.75 miles (1.21 km)
Ceiling: indefinite ceiling with vertical visibility of 1300 feet AGL
Clouds: obscured sky
Weather: -SN BR  (light snow, mist)

METAR text: KGRB 231312Z 34006KT 1 1/4SM -SN OVC024 M06/M09 A2982 RMK AO2 P0000 T10611089
Conditions at: KGRB (ASHWAUBENON , WI, US) observed 1312 UTC 23 January 2019
Temperature: -6.1°C (21°F)
Dewpoint: -8.9°C (16°F) [RH = 81%]
Pressure (altimeter): 29.82 inches Hg (1009.9 mb)
Winds: from the NNW (340 degrees) at 7 MPH (6 knots; 3.1 m/s)
Visibility: 1.25 miles (2.01 km)
Ceiling: 2400 feet AGL
Clouds: overcast cloud deck at 2400 feet AGL
Weather: -SN  (light snow)

METAR text: KGRB 231304Z 35006KT 1 3/4SM -SN OVC031 M06/M09 A2982 RMK AO2 P0000 T10611089
Conditions at: KGRB (ASHWAUBENON , WI, US) observed 1304 UTC 23 January 2019
Temperature: -6.1°C (21°F)
Dewpoint: -8.9°C (16°F) [RH = 81%]
Pressure (altimeter): 29.82 inches Hg (1009.9 mb)
Winds: from the N (350 degrees) at 7 MPH (6 knots; 3.1 m/s)
Visibility: 1.75 miles (2.82 km)
Ceiling: 3100 feet AGL
Clouds: overcast cloud deck at 3100 feet AGL
Weather: -SN  (light snow)

METAR text: KGRB 231253Z 36006KT 4SM -SN BKN041 OVC055 M06/M09 A2981 RMK AO2 SLP107 P0001 T10611089
Conditions at: KGRB (ASHWAUBENON , WI, US) observed 1253 UTC 23 January 2019
Temperature: -6.1°C (21°F)
Dewpoint: -8.9°C (16°F) [RH = 81%]
Pressure (altimeter): 29.81 inches Hg (1009.6 mb)
[Sea-level pressure: 1010.7 mb]
Winds: from the N (360 degrees) at 7 MPH (6 knots; 3.1 m/s)
Visibility: 4 miles ( 6 km)
Ceiling: 4100 feet AGL
Clouds: broken clouds at 4100 feet AGL
overcast cloud deck at 5500 feet AGL
Weather: -SN  (light snow)

METAR text: KGRB 231219Z 35006KT 3SM -SN BKN033 OVC055 M06/M09 A2980 RMK AO2 P0000 T10611089
Conditions at: KGRB (ASHWAUBENON , WI, US) observed 1219 UTC 23 January 2019
Temperature: -6.1°C (21°F)
Dewpoint: -8.9°C (16°F) [RH = 81%]
Pressure (altimeter): 29.80 inches Hg (1009.2 mb)
Winds: from the N (350 degrees) at 7 MPH (6 knots; 3.1 m/s)
Visibility: 3 miles ( 5 km)
Ceiling: 3300 feet AGL
Clouds: broken clouds at 3300 feet AGL
overcast cloud deck at 5500 feet AGL
Weather: -SN  (light snow)

METAR text: KGRB 231208Z 36007KT 2SM -SN OVC027 M06/M09 A2981 RMK AO2 PRESFR P0000 T10611089
Conditions at: KGRB (ASHWAUBENON , WI, US) observed 1208 UTC 23 January 2019
Temperature: -6.1°C (21°F)
Dewpoint: -8.9°C (16°F) [RH = 81%]
Pressure (altimeter): 29.81 inches Hg (1009.6 mb)
Winds: from the N (360 degrees) at 8 MPH (7 knots; 3.6 m/s)
Visibility: 2.00 miles (3.22 km)
Ceiling: 2700 feet AGL
Clouds: overcast cloud deck at 2700 feet AGL
Weather: -SN  (light snow)

METAR text: KGRB 231153Z 36005KT 1 1/4SM -SN OVC019 M06/M09 A2984 RMK AO2 SLP115 P0003 60004 70009 T10611089 11056 21061 58007
Conditions at: KGRB (ASHWAUBENON , WI, US) observed 1153 UTC 23 January 2019
Temperature: -6.1°C (21°F)
Dewpoint: -8.9°C (16°F) [RH = 81%]
Pressure (altimeter): 29.84 inches Hg (1010.6 mb)
[Sea-level pressure: 1011.5 mb]
Winds: from the N (360 degrees) at 6 MPH (5 knots; 2.6 m/s)
Visibility: 1.25 miles (2.01 km)
Ceiling: 1900 feet AGL
Clouds: overcast cloud deck at 1900 feet AGL
Weather: -SN  (light snow)

METAR text: KGRB 231107Z AUTO 02004KT 1 3/4SM -SN OVC027 M06/M09 A2985 RMK AO2 P0000 T10611094
Conditions at: KGRB (ASHWAUBENON , WI, US) observed 1107 UTC 23 January 2019
Temperature: -6.1°C (21°F)
Dewpoint: -9.4°C (15°F) [RH = 77%]
Pressure (altimeter): 29.85 inches Hg (1010.9 mb)
Winds: from the NNE (20 degrees) at 5 MPH (4 knots; 2.1 m/s)
Visibility: 1.75 miles (2.82 km)
Ceiling: 2700 feet AGL
Clouds: overcast cloud deck at 2700 feet AGL
Weather: -SN  (light snow)

METAR text: KGRB 231053Z AUTO 01006KT 2 1/2SM -SN BKN033 OVC050 M06/M09 A2985 RMK AO2 SNB26 SLP119 P0000 T10561094
Conditions at: KGRB (ASHWAUBENON , WI, US) observed 1053 UTC 23 January 2019
Temperature: -5.6°C (22°F)
Dewpoint: -9.4°C (15°F) [RH = 75%]
Pressure (altimeter): 29.85 inches Hg (1010.9 mb)
[Sea-level pressure: 1011.9 mb]
Winds: from the N (10 degrees) at 7 MPH (6 knots; 3.1 m/s)
Visibility: 2.50 miles (4.02 km)
Ceiling: 3300 feet AGL
Clouds: broken clouds at 3300 feet AGL
overcast cloud deck at 5000 feet AGL
Weather: -SN  (light snow)

METAR text: KGRB 230953Z AUTO 36005KT 10SM BKN050 M06/M09 A2985 RMK AO2 SNE15 SLP121 P0000 T10561094
Conditions at: KGRB (ASHWAUBENON , WI, US) observed 0953 UTC 23 January 2019
Temperature: -5.6°C (22°F)
Dewpoint: -9.4°C (15°F) [RH = 75%]
Pressure (altimeter): 29.85 inches Hg (1010.9 mb)
[Sea-level pressure: 1012.1 mb]
Winds: from the N (360 degrees) at 6 MPH (5 knots; 2.6 m/s)
Visibility: 10 or more miles (16+ km)
Ceiling: 5000 feet AGL
Clouds: broken clouds at 5000 feet AGL
Weather: automated observation with no human augmentation;
there may or may not be significant weather present at this time

METAR text: KGRB 230853Z AUTO 01007KT 3SM -SN OVC033 M06/M09 A2986 RMK AO2 PRESFR SLP122 P0001 60001 T10611089 58027
Conditions at: KGRB (ASHWAUBENON , WI, US) observed 0853 UTC 23 January 2019
Temperature: -6.1°C (21°F)
Dewpoint: -8.9°C (16°F) [RH = 81%]
Pressure (altimeter): 29.86 inches Hg (1011.3 mb)
[Sea-level pressure: 1012.2 mb]
Winds: from the N (10 degrees) at 8 MPH (7 knots; 3.6 m/s)
Visibility: 3 miles ( 5 km)
Ceiling: 3300 feet AGL
Clouds: overcast cloud deck at 3300 feet AGL
Weather: -SN  (light snow)

METAR text: KGRB 230850Z AUTO 02008KT 3SM -SN OVC033 M06/M09 A2987 RMK AO2 P0001
Conditions at: KGRB (ASHWAUBENON , WI, US) observed 0850 UTC 23 January 2019
Temperature: -6.0°C (21°F)
Dewpoint: -9.0°C (16°F) [RH = 79%]
Pressure (altimeter): 29.87 inches Hg (1011.6 mb)
Winds: from the NNE (20 degrees) at 9 MPH (8 knots; 4.1 m/s)
Visibility: 3 miles ( 5 km)
Ceiling: 3300 feet AGL
Clouds: overcast cloud deck at 3300 feet AGL
Weather: -SN  (light snow)

METAR text: KGRB 230840Z AUTO 02007KT 2 1/2SM -SN OVC027 M06/M09 A2989 RMK AO2 P0000 T10611089
Conditions at: KGRB (ASHWAUBENON , WI, US) observed 0840 UTC 23 January 2019
Temperature: -6.1°C (21°F)
Dewpoint: -8.9°C (16°F) [RH = 81%]
Pressure (altimeter): 29.89 inches Hg (1012.3 mb)
Winds: from the NNE (20 degrees) at 8 MPH (7 knots; 3.6 m/s)
Visibility: 2.50 miles (4.02 km)
Ceiling: 2700 feet AGL
Clouds: overcast cloud deck at 2700 feet AGL
Weather: -SN  (light snow)

METAR text: KGRB 230826Z AUTO 01005KT 1 3/4SM -SN OVC027 M06/M09 A2991 RMK AO2 P0000 T10561089
Conditions at: KGRB (ASHWAUBENON , WI, US) observed 0826 UTC 23 January 2019
Temperature: -5.6°C (22°F)
Dewpoint: -8.9°C (16°F) [RH = 77%]
Pressure (altimeter): 29.91 inches Hg (1013.0 mb)
Winds: from the N (10 degrees) at 6 MPH (5 knots; 2.6 m/s)
Visibility: 1.75 miles (2.82 km)
Ceiling: 2700 feet AGL
Clouds: overcast cloud deck at 2700 feet AGL
Weather: -SN  (light snow)

METAR text: KGRB 230817Z AUTO 36005KT 1 3/4SM -SN OVC031 M06/M09 A2992 RMK AO2 P0000 T10561094
Conditions at: KGRB (ASHWAUBENON , WI, US) observed 0817 UTC 23 January 2019
Temperature: -5.6°C (22°F)
Dewpoint: -9.4°C (15°F) [RH = 75%]
Pressure (altimeter): 29.92 inches Hg (1013.3 mb)
Winds: from the N (360 degrees) at 6 MPH (5 knots; 2.6 m/s)
Visibility: 1.75 miles (2.82 km)
Ceiling: 3100 feet AGL
Clouds: overcast cloud deck at 3100 feet AGL
Weather: -SN  (light snow)

METAR text: KGRB 230753Z AUTO 35005KT 6SM -SN OVC055 M06/M09 A2993 RMK AO2 SNB33 SLP146 P0000 T10561094
Conditions at: KGRB (ASHWAUBENON , WI, US) observed 0753 UTC 23 January 2019
Temperature: -5.6°C (22°F)
Dewpoint: -9.4°C (15°F) [RH = 75%]
Pressure (altimeter): 29.93 inches Hg (1013.6 mb)
[Sea-level pressure: 1014.6 mb]
Winds: from the N (350 degrees) at 6 MPH (5 knots; 2.6 m/s)
Visibility: 6 miles (10 km)
Ceiling: 5500 feet AGL
Clouds: overcast cloud deck at 5500 feet AGL
Weather: -SN  (light snow)

METAR text: KGRB 230653Z AUTO 34005KT 10SM BKN034 OVC085 M06/M09 A2993 RMK AO2 SLP147 T10561094
Conditions at: KGRB (ASHWAUBENON , WI, US) observed 0653 UTC 23 January 2019
Temperature: -5.6°C (22°F)
Dewpoint: -9.4°C (15°F) [RH = 75%]
Pressure (altimeter): 29.93 inches Hg (1013.6 mb)
[Sea-level pressure: 1014.7 mb]
Winds: from the NNW (340 degrees) at 6 MPH (5 knots; 2.6 m/s)
Visibility: 10 or more miles (16+ km)
Ceiling: 3400 feet AGL
Clouds: broken clouds at 3400 feet AGL
overcast cloud deck at 8500 feet AGL
Weather: automated observation with no human augmentation;
there may or may not be significant weather present at this time

METAR text: KGRB 230553Z AUTO 35006KT 8SM OVC080 M06/M09 A2994 RMK AO2 SNE13 SLP150 P0000 60001 T10561089 11050 21056 410331056 58007
Conditions at: KGRB (ASHWAUBENON , WI, US) observed 0553 UTC 23 January 2019
Temperature: -5.6°C (22°F)
Dewpoint: -8.9°C (16°F) [RH = 77%]
Pressure (altimeter): 29.94 inches Hg (1014.0 mb)
[Sea-level pressure: 1015.0 mb]
Winds: from the N (350 degrees) at 7 MPH (6 knots; 3.1 m/s)
Visibility: 8 miles (13 km)
Ceiling: 8000 feet AGL
Clouds: overcast cloud deck at 8000 feet AGL
Weather: automated observation with no human augmentation;
there may or may not be significant weather present at this time

METAR text: KGRB 230453Z 34004KT 5SM -SN BKN036 OVC044 M06/M09 A2994 RMK AO2 SNB45 SLP152 P0000 T10561089
Conditions at: KGRB (ASHWAUBENON , WI, US) observed 0453 UTC 23 January 2019
Temperature: -5.6°C (22°F)
Dewpoint: -8.9°C (16°F) [RH = 77%]
Pressure (altimeter): 29.94 inches Hg (1014.0 mb)
[Sea-level pressure: 1015.2 mb]
Winds: from the NNW (340 degrees) at 5 MPH (4 knots; 2.1 m/s)
Visibility: 5 miles ( 8 km)
Ceiling: 3600 feet AGL
Clouds: broken clouds at 3600 feet AGL
overcast cloud deck at 4400 feet AGL
Weather: -SN  (light snow)

METAR text: KGRB 230353Z 33005KT 10SM BKN045 OVC070 M06/M09 A2996 RMK AO2 SLP156 T10561089
Conditions at: KGRB (ASHWAUBENON , WI, US) observed 0353 UTC 23 January 2019
Temperature: -5.6°C (22°F)
Dewpoint: -8.9°C (16°F) [RH = 77%]
Pressure (altimeter): 29.96 inches Hg (1014.6 mb)
[Sea-level pressure: 1015.6 mb]
Winds: from the NNW (330 degrees) at 6 MPH (5 knots; 2.6 m/s)
Visibility: 10 or more miles (16+ km)
Ceiling: 4500 feet AGL
Clouds: broken clouds at 4500 feet AGL
overcast cloud deck at 7000 feet AGL
Weather: no significant weather observed at this time

METAR text: KGRB 230253Z 32006KT 10SM OVC065 M06/M09 A2996 RMK AO2 SLP157 60001 T10561094 58007
Conditions at: KGRB (ASHWAUBENON , WI, US) observed 0253 UTC 23 January 2019
Temperature: -5.6°C (22°F)
Dewpoint: -9.4°C (15°F) [RH = 75%]
Pressure (altimeter): 29.96 inches Hg (1014.6 mb)
[Sea-level pressure: 1015.7 mb]
Winds: from the NW (320 degrees) at 7 MPH (6 knots; 3.1 m/s)
Visibility: 10 or more miles (16+ km)
Ceiling: 6500 feet AGL
Clouds: overcast cloud deck at 6500 feet AGL
Weather: no significant weather observed at this time

METAR text: KGRB 230153Z 29004KT 9SM OVC040 M05/M08 A2998 RMK AO2 SNB07E33 SLP163 P0000 T10501083
Conditions at: KGRB (ASHWAUBENON , WI, US) observed 0153 UTC 23 January 2019
Temperature: -5.0°C (23°F)
Dewpoint: -8.3°C (17°F) [RH = 78%]
Pressure (altimeter): 29.98 inches Hg (1015.3 mb)
[Sea-level pressure: 1016.3 mb]
Winds: from the WNW (290 degrees) at 5 MPH (4 knots; 2.1 m/s)
Visibility: 9 miles (14 km)
Ceiling: 4000 feet AGL
Clouds: overcast cloud deck at 4000 feet AGL
Weather: no significant weather observed at this time

METAR text: KGRB 230100Z 00000KT 9SM OVC045 M05/M08 A2997 RMK AO2 T10501078
Conditions at: KGRB (ASHWAUBENON , WI, US) observed 0100 UTC 23 January 2019
Temperature: -5.0°C (23°F)
Dewpoint: -7.8°C (18°F) [RH = 81%]
Pressure (altimeter): 29.97 inches Hg (1015.0 mb)
Winds: calm
Visibility: 9 miles (14 km)
Ceiling: 4500 feet AGL
Clouds: overcast cloud deck at 4500 feet AGL
Weather: no significant weather observed at this time

METAR text: KGRB 230053Z 00000KT 2 1/2SM BR BKN038 OVC055 M06/M08 A2997 RMK AO2 SNE32 SLP159 P0001 T10561078
Conditions at: KGRB (ASHWAUBENON , WI, US) observed 0053 UTC 23 January 2019
Temperature: -5.6°C (22°F)
Dewpoint: -7.8°C (18°F) [RH = 84%]
Pressure (altimeter): 29.97 inches Hg (1015.0 mb)
[Sea-level pressure: 1015.9 mb]
Winds: calm
Visibility: 2.50 miles (4.02 km)
Ceiling: 3800 feet AGL
Clouds: broken clouds at 3800 feet AGL
overcast cloud deck at 5500 feet AGL
Weather: BR  (mist)

METAR text: KGRB 222353Z 26003KT 2SM -SN BKN038 OVC055 M05/M08 A2998 RMK AO2 SLP163 P0001 60004 I6000 T10501078 11039 21056 56005
Conditions at: KGRB (ASHWAUBENON , WI, US) observed 2353 UTC 22 January 2019
Temperature: -5.0°C (23°F)
Dewpoint: -7.8°C (18°F) [RH = 81%]
Pressure (altimeter): 29.98 inches Hg (1015.3 mb)
[Sea-level pressure: 1016.3 mb]
Winds: from the W (260 degrees) at 3 MPH (3 knots; 1.5 m/s)
Visibility: 2.00 miles (3.22 km)
Ceiling: 3800 feet AGL
Clouds: broken clouds at 3800 feet AGL
overcast cloud deck at 5500 feet AGL
Weather: -SN  (light snow)

METAR text: KGRB 222300Z 26005KT 2SM -SN OVC040 M05/M08 A2999 RMK AO2 P0000 T10501078
Conditions at: KGRB (ASHWAUBENON , WI, US) observed 2300 UTC 22 January 2019
Temperature: -5.0°C (23°F)
Dewpoint: -7.8°C (18°F) [RH = 81%]
Pressure (altimeter): 29.99 inches Hg (1015.7 mb)
Winds: from the W (260 degrees) at 6 MPH (5 knots; 2.6 m/s)
Visibility: 2.00 miles (3.22 km)
Ceiling: 4000 feet AGL
Clouds: overcast cloud deck at 4000 feet AGL
Weather: -SN  (light snow)

METAR text: KGRB 222253Z 26005KT 2SM -SN BKN011 OVC055 M05/M08 A2998 RMK AO2 SLP165 P0001 T10501078
Conditions at: KGRB (ASHWAUBENON , WI, US) observed 2253 UTC 22 January 2019
Temperature: -5.0°C (23°F)
Dewpoint: -7.8°C (18°F) [RH = 81%]
Pressure (altimeter): 29.98 inches Hg (1015.3 mb)
[Sea-level pressure: 1016.5 mb]
Winds: from the W (260 degrees) at 6 MPH (5 knots; 2.6 m/s)
Visibility: 2.00 miles (3.22 km)
Ceiling: 1100 feet AGL
Clouds: broken clouds at 1100 feet AGL
overcast cloud deck at 5500 feet AGL
Weather: -SN  (light snow)

METAR text: KGRB 222231Z 24004KT 2SM -SN BKN011 OVC055 M05/M08 A2998 RMK AO2 P0001 T10501078
Conditions at: KGRB (ASHWAUBENON , WI, US) observed 2231 UTC 22 January 2019
Temperature: -5.0°C (23°F)
Dewpoint: -7.8°C (18°F) [RH = 81%]
Pressure (altimeter): 29.98 inches Hg (1015.3 mb)
Winds: from the WSW (240 degrees) at 5 MPH (4 knots; 2.1 m/s)
Visibility: 2.00 miles (3.22 km)
Ceiling: 1100 feet AGL
Clouds: broken clouds at 1100 feet AGL
overcast cloud deck at 5500 feet AGL
Weather: -SN  (light snow)

METAR text: KGRB 222211Z 20003KT 2SM -SN BKN011 BKN014 OVC060 M05/M08 A2997 RMK AO2 P0001 T10501078
Conditions at: KGRB (ASHWAUBENON , WI, US) observed 2211 UTC 22 January 2019
Temperature: -5.0°C (23°F)
Dewpoint: -7.8°C (18°F) [RH = 81%]
Pressure (altimeter): 29.97 inches Hg (1015.0 mb)
Winds: from the SSW (200 degrees) at 3 MPH (3 knots; 1.5 m/s)
Visibility: 2.00 miles (3.22 km)
Ceiling: 1100 feet AGL
Clouds: broken clouds at 1100 feet AGL
broken clouds at 1400 feet AGL
overcast cloud deck at 6000 feet AGL
Weather: -SN  (light snow)

METAR text: KGRB 222153Z 21004KT 4SM -SN BKN011 BKN015 OVC060 M05/M08 A2998 RMK AO2 SNE10B36 SLP165 P0000 T10501078
Conditions at: KGRB (ASHWAUBENON , WI, US) observed 2153 UTC 22 January 2019
Temperature: -5.0°C (23°F)
Dewpoint: -7.8°C (18°F) [RH = 81%]
Pressure (altimeter): 29.98 inches Hg (1015.3 mb)
[Sea-level pressure: 1016.5 mb]
Winds: from the SSW (210 degrees) at 5 MPH (4 knots; 2.1 m/s)
Visibility: 4 miles ( 6 km)
Ceiling: 1100 feet AGL
Clouds: broken clouds at 1100 feet AGL
broken clouds at 1500 feet AGL
overcast cloud deck at 6000 feet AGL
Weather: -SN  (light snow)

METAR text: KGRB 222105Z 22005KT 3SM -SN BKN017 BKN048 OVC080 M05/M08 A2999 RMK AO2 P0000 T10501078
Conditions at: KGRB (ASHWAUBENON , WI, US) observed 2105 UTC 22 January 2019
Temperature: -5.0°C (23°F)
Dewpoint: -7.8°C (18°F) [RH = 81%]
Pressure (altimeter): 29.99 inches Hg (1015.7 mb)
Winds: from the SW (220 degrees) at 6 MPH (5 knots; 2.6 m/s)
Visibility: 3 miles ( 5 km)
Ceiling: 1700 feet AGL
Clouds: broken clouds at 1700 feet AGL
broken clouds at 4800 feet AGL
overcast cloud deck at 8000 feet AGL
Weather: -SN  (light snow)

METAR text: KGRB 222102Z 22004KT 2SM -SN SCT017 BKN048 OVC080 M05/M08 A2999 RMK AO2 P0000 T10501078
Conditions at: KGRB (ASHWAUBENON , WI, US) observed 2102 UTC 22 January 2019
Temperature: -5.0°C (23°F)
Dewpoint: -7.8°C (18°F) [RH = 81%]
Pressure (altimeter): 29.99 inches Hg (1015.7 mb)
Winds: from the SW (220 degrees) at 5 MPH (4 knots; 2.1 m/s)
Visibility: 2.00 miles (3.22 km)
Ceiling: 4800 feet AGL
Clouds: scattered clouds at 1700 feet AGL
broken clouds at 4800 feet AGL
overcast cloud deck at 8000 feet AGL
Weather: -SN  (light snow)

METAR text: KGRB 222100Z 21005KT 1 3/4SM -SN BKN017 BKN048 OVC080 M05/M08 A2999 RMK AO2 P0000 T10501078
Conditions at: KGRB (ASHWAUBENON , WI, US) observed 2100 UTC 22 January 2019
Temperature: -5.0°C (23°F)
Dewpoint: -7.8°C (18°F) [RH = 81%]
Pressure (altimeter): 29.99 inches Hg (1015.7 mb)
Winds: from the SSW (210 degrees) at 6 MPH (5 knots; 2.6 m/s)
Visibility: 1.75 miles (2.82 km)
Ceiling: 1700 feet AGL
Clouds: broken clouds at 1700 feet AGL
broken clouds at 4800 feet AGL
overcast cloud deck at 8000 feet AGL
Weather: -SN  (light snow)

METAR text: KGRB 222053Z 22004KT 3/4SM -SN BKN017 OVC048 M05/M08 A3000 RMK AO2 SLP169 P0002 60002 I3000 T10501078 56018 RVRNO
Conditions at: KGRB (ASHWAUBENON , WI, US) observed 2053 UTC 22 January 2019
Temperature: -5.0°C (23°F)
Dewpoint: -7.8°C (18°F) [RH = 81%]
Pressure (altimeter): 30.00 inches Hg (1016.0 mb)
[Sea-level pressure: 1016.9 mb]
Winds: from the SW (220 degrees) at 5 MPH (4 knots; 2.1 m/s)
Visibility: 0.75 miles (1.21 km)
Ceiling: 1700 feet AGL
Clouds: broken clouds at 1700 feet AGL
overcast cloud deck at 4800 feet AGL
Weather: -SN  (light snow)

METAR text: KGRB 222042Z 23004KT 3/4SM -SN VV017 M05/M08 A3000 RMK AO2 P0001 T10501078 RVRNO
Conditions at: KGRB (ASHWAUBENON , WI, US) observed 2042 UTC 22 January 2019
Temperature: -5.0°C (23°F)
Dewpoint: -7.8°C (18°F) [RH = 81%]
Pressure (altimeter): 30.00 inches Hg (1016.0 mb)
Winds: from the SW (230 degrees) at 5 MPH (4 knots; 2.1 m/s)
Visibility: 0.75 miles (1.21 km)
Ceiling: indefinite ceiling with vertical visibility of 1700 feet AGL
Clouds: obscured sky
Weather: -SN  (light snow)

METAR text: KGRB 222012Z 23007KT 3/4SM -SN BR BKN007 BKN011 OVC019 M05/M07 A3000 RMK AO2 P0000 T10501072 RVRNO
Conditions at: KGRB (ASHWAUBENON , WI, US) observed 2012 UTC 22 January 2019
Temperature: -5.0°C (23°F)
Dewpoint: -7.2°C (19°F) [RH = 85%]
Pressure (altimeter): 30.00 inches Hg (1016.0 mb)
Winds: from the SW (230 degrees) at 8 MPH (7 knots; 3.6 m/s)
Visibility: 0.75 miles (1.21 km)
Ceiling: 700 feet AGL
Clouds: broken clouds at 700 feet AGL
broken clouds at 1100 feet AGL
overcast cloud deck at 1900 feet AGL
Weather: -SN BR  (light snow, mist)

METAR text: KGRB 222010Z 22005KT 1SM -SN BR BKN007 BKN011 OVC019 M05/M07 A3000 RMK AO2 P0000 T10501072 RVRNO
Conditions at: KGRB (ASHWAUBENON , WI, US) observed 2010 UTC 22 January 2019
Temperature: -5.0°C (23°F)
Dewpoint: -7.2°C (19°F) [RH = 85%]
Pressure (altimeter): 30.00 inches Hg (1016.0 mb)
Winds: from the SW (220 degrees) at 6 MPH (5 knots; 2.6 m/s)
Visibility: 1.00 miles (1.61 km)
Ceiling: 700 feet AGL
Clouds: broken clouds at 700 feet AGL
broken clouds at 1100 feet AGL
overcast cloud deck at 1900 feet AGL
Weather: -SN BR  (light snow, mist)

METAR text: KGRB 222008Z 22005KT 1 1/4SM -SN BR BKN009 OVC021 M05/M07 A3000 RMK AO2 P0000 T10501072
Conditions at: KGRB (ASHWAUBENON , WI, US) observed 2008 UTC 22 January 2019
Temperature: -5.0°C (23°F)
Dewpoint: -7.2°C (19°F) [RH = 85%]
Pressure (altimeter): 30.00 inches Hg (1016.0 mb)
Winds: from the SW (220 degrees) at 6 MPH (5 knots; 2.6 m/s)
Visibility: 1.25 miles (2.01 km)
Ceiling: 900 feet AGL
Clouds: broken clouds at 900 feet AGL
overcast cloud deck at 2100 feet AGL
Weather: -SN BR  (light snow, mist)

METAR text: KGRB 221953Z 21006KT 1 3/4SM -SN FEW006 OVC010 M05/M08 A3001 RMK AO2 SNB41 SLP174 P0000 I1000 T10501078
Conditions at: KGRB (ASHWAUBENON , WI, US) observed 1953 UTC 22 January 2019
Temperature: -5.0°C (23°F)
Dewpoint: -7.8°C (18°F) [RH = 81%]
Pressure (altimeter): 30.01 inches Hg (1016.3 mb)
[Sea-level pressure: 1017.4 mb]
Winds: from the SSW (210 degrees) at 7 MPH (6 knots; 3.1 m/s)
Visibility: 1.75 miles (2.82 km)
Ceiling: 1000 feet AGL
Clouds: few clouds at 600 feet AGL
overcast cloud deck at 1000 feet AGL
Weather: -SN  (light snow)

METAR text: KGRB 221942Z 22006KT 2 1/2SM -SN OVC008 M05/M08 A3001 RMK AO2 SNB41 P0000 I1000 T10501078
Conditions at: KGRB (ASHWAUBENON , WI, US) observed 1942 UTC 22 January 2019
Temperature: -5.0°C (23°F)
Dewpoint: -7.8°C (18°F) [RH = 81%]
Pressure (altimeter): 30.01 inches Hg (1016.3 mb)
Winds: from the SW (220 degrees) at 7 MPH (6 knots; 3.1 m/s)
Visibility: 2.50 miles (4.02 km)
Ceiling: 800 feet AGL
Clouds: overcast cloud deck at 800 feet AGL
Weather: -SN  (light snow)

METAR text: KGRB 221931Z 23005KT 3SM BR BKN008 BKN013 OVC022 M06/M08 A3002 RMK AO2 I1000 T10561078
Conditions at: KGRB (ASHWAUBENON , WI, US) observed 1931 UTC 22 January 2019
Temperature: -5.6°C (22°F)
Dewpoint: -7.8°C (18°F) [RH = 84%]
Pressure (altimeter): 30.02 inches Hg (1016.7 mb)
Winds: from the SW (230 degrees) at 6 MPH (5 knots; 2.6 m/s)
Visibility: 3 miles ( 5 km)
Ceiling: 800 feet AGL
Clouds: broken clouds at 800 feet AGL
broken clouds at 1300 feet AGL
overcast cloud deck at 2200 feet AGL
Weather: BR  (mist)

METAR text: KGRB 221917Z 21005KT 4SM BR SCT008 BKN014 OVC024 M06/M08 A3002 RMK AO2 T10561078
Conditions at: KGRB (ASHWAUBENON , WI, US) observed 1917 UTC 22 January 2019
Temperature: -5.6°C (22°F)
Dewpoint: -7.8°C (18°F) [RH = 84%]
Pressure (altimeter): 30.02 inches Hg (1016.7 mb)
Winds: from the SSW (210 degrees) at 6 MPH (5 knots; 2.6 m/s)
Visibility: 4 miles ( 6 km)
Ceiling: 1400 feet AGL
Clouds: scattered clouds at 800 feet AGL
broken clouds at 1400 feet AGL
overcast cloud deck at 2400 feet AGL
Weather: BR  (mist)

METAR text: KGRB 221853Z 22007KT 6SM HZ FEW011 OVC028 M05/M08 A3002 RMK AO2 SLP178 T10501083
Conditions at: KGRB (ASHWAUBENON , WI, US) observed 1853 UTC 22 January 2019
Temperature: -5.0°C (23°F)
Dewpoint: -8.3°C (17°F) [RH = 78%]
Pressure (altimeter): 30.02 inches Hg (1016.7 mb)
[Sea-level pressure: 1017.8 mb]
Winds: from the SW (220 degrees) at 8 MPH (7 knots; 3.6 m/s)
Visibility: 6 miles (10 km)
Ceiling: 2800 feet AGL
Clouds: few clouds at 1100 feet AGL
overcast cloud deck at 2800 feet AGL
Weather: HZ  (haze)

METAR text: KGRB 221753Z 22007KT 10SM OVC025 M04/M11 A3005 RMK AO2 SLP187 T10391111 11033 21039 58019
Conditions at: KGRB (ASHWAUBENON , WI, US) observed 1753 UTC 22 January 2019
Temperature: -3.9°C (25°F)
Dewpoint: -11.1°C (12°F) [RH = 57%]
Pressure (altimeter): 30.05 inches Hg (1017.7 mb)
[Sea-level pressure: 1018.7 mb]
Winds: from the SW (220 degrees) at 8 MPH (7 knots; 3.6 m/s)
Visibility: 10 or more miles (16+ km)
Ceiling: 2500 feet AGL
Clouds: overcast cloud deck at 2500 feet AGL
Weather: no significant weather observed at this time

METAR text: KGRB 221705Z 21006KT 10SM OVC028 M04/M11 A3008 RMK AO2 T10391111
Conditions at: KGRB (ASHWAUBENON , WI, US) observed 1705 UTC 22 January 2019
Temperature: -3.9°C (25°F)
Dewpoint: -11.1°C (12°F) [RH = 57%]
Pressure (altimeter): 30.08 inches Hg (1018.7 mb)
Winds: from the SSW (210 degrees) at 7 MPH (6 knots; 3.1 m/s)
Visibility: 10 or more miles (16+ km)
Ceiling: 2800 feet AGL
Clouds: overcast cloud deck at 2800 feet AGL
Weather: no significant weather observed at this time

METAR text: KGRB 221653Z 20008KT 10SM OVC030 M04/M11 A3008 RMK AO2 SLP197 T10391111
Conditions at: KGRB (ASHWAUBENON , WI, US) observed 1653 UTC 22 January 2019
Temperature: -3.9°C (25°F)
Dewpoint: -11.1°C (12°F) [RH = 57%]
Pressure (altimeter): 30.08 inches Hg (1018.7 mb)
[Sea-level pressure: 1019.7 mb]
Winds: from the SSW (200 degrees) at 9 MPH (8 knots; 4.1 m/s)
Visibility: 10 or more miles (16+ km)
Ceiling: 3000 feet AGL
Clouds: overcast cloud deck at 3000 feet AGL
Weather: no significant weather observed at this time

METAR text: KGRB 221553Z 20008KT 10SM OVC034 M04/M12 A3011 RMK AO2 SLP206 T10391117
Conditions at: KGRB (ASHWAUBENON , WI, US) observed 1553 UTC 22 January 2019
Temperature: -3.9°C (25°F)
Dewpoint: -11.7°C (11°F) [RH = 55%]
Pressure (altimeter): 30.11 inches Hg (1019.7 mb)
[Sea-level pressure: 1020.6 mb]
Winds: from the SSW (200 degrees) at 9 MPH (8 knots; 4.1 m/s)
Visibility: 10 or more miles (16+ km)
Ceiling: 3400 feet AGL
Clouds: overcast cloud deck at 3400 feet AGL
Weather: no significant weather observed at this time

METAR text: KGRB 221453Z 18008KT 10SM OVC037 M04/M11 A3011 RMK AO2 SLP207 T10391111 56019
Conditions at: KGRB (ASHWAUBENON , WI, US) observed 1453 UTC 22 January 2019
Temperature: -3.9°C (25°F)
Dewpoint: -11.1°C (12°F) [RH = 57%]
Pressure (altimeter): 30.11 inches Hg (1019.7 mb)
[Sea-level pressure: 1020.7 mb]
Winds: from the S (180 degrees) at 9 MPH (8 knots; 4.1 m/s)
Visibility: 10 or more miles (16+ km)
Ceiling: 3700 feet AGL
Clouds: overcast cloud deck at 3700 feet AGL
Weather: no significant weather observed at this time

METAR text: KGRB 221353Z 18009KT 10SM OVC042 M03/M09 A3012 RMK AO2 SLP212 T10331094
Conditions at: KGRB (ASHWAUBENON , WI, US) observed 1353 UTC 22 January 2019
Temperature: -3.3°C (26°F)
Dewpoint: -9.4°C (15°F) [RH = 63%]
Pressure (altimeter): 30.12 inches Hg (1020.1 mb)
[Sea-level pressure: 1021.2 mb]
Winds: from the S (180 degrees) at 10 MPH (9 knots; 4.6 m/s)
Visibility: 10 or more miles (16+ km)
Ceiling: 4200 feet AGL
Clouds: overcast cloud deck at 4200 feet AGL
Weather: no significant weather observed at this time

METAR text: KGRB 221253Z 19008KT 10SM BKN047 M03/M09 A3014 RMK AO2 SLP219 T10331089
Conditions at: KGRB (ASHWAUBENON , WI, US) observed 1253 UTC 22 January 2019
Temperature: -3.3°C (26°F)
Dewpoint: -8.9°C (16°F) [RH = 65%]
Pressure (altimeter): 30.14 inches Hg (1020.7 mb)
[Sea-level pressure: 1021.9 mb]
Winds: from the S (190 degrees) at 9 MPH (8 knots; 4.1 m/s)
Visibility: 10 or more miles (16+ km)
Ceiling: 4700 feet AGL
Clouds: broken clouds at 4700 feet AGL
Weather: no significant weather observed at this time

METAR text: KGRB 221153Z 18007KT 10SM CLR M03/M09 A3017 RMK AO2 SLP227 60002 70002 T10331089 11033 21056 56017 $
Conditions at: KGRB (ASHWAUBENON , WI, US) observed 1153 UTC 22 January 2019
Temperature: -3.3°C (26°F)
Dewpoint: -8.9°C (16°F) [RH = 65%]
Pressure (altimeter): 30.17 inches Hg (1021.8 mb)
[Sea-level pressure: 1022.7 mb]
Winds: from the S (180 degrees) at 8 MPH (7 knots; 3.6 m/s)
Visibility: 10 or more miles (16+ km)
Ceiling: at least 12,000 feet AGL
Clouds: sky clear below 12,000 feet AGL
Weather:
SOME DATA ABOVE MAY BE INACCURATE!!!
"$" is an indication the sensor requires maintenance

METAR text: KGRB 221053Z AUTO 16010KT 10SM CLR M04/M09 A3017 RMK AO2 SLP229 T10391094 $
Conditions at: KGRB (ASHWAUBENON , WI, US) observed 1053 UTC 22 January 2019
Temperature: -3.9°C (25°F)
Dewpoint: -9.4°C (15°F) [RH = 66%]
Pressure (altimeter): 30.17 inches Hg (1021.8 mb)
[Sea-level pressure: 1022.9 mb]
Winds: from the SSE (160 degrees) at 12 MPH (10 knots; 5.1 m/s)
Visibility: 10 or more miles (16+ km)
Ceiling: at least 12,000 feet AGL
Clouds: sky clear below 12,000 feet AGL
Weather:
SOME DATA ABOVE MAY BE INACCURATE!!!
"$" is an indication the sensor requires maintenance

METAR text: KGRB 220953Z AUTO 14016G22KT 10SM CLR M04/M09 A3019 RMK AO2 PK WND 15026/0935 SLP235 T10391094 $
Conditions at: KGRB (ASHWAUBENON , WI, US) observed 0953 UTC 22 January 2019
Temperature: -3.9°C (25°F)
Dewpoint: -9.4°C (15°F) [RH = 66%]
Pressure (altimeter): 30.19 inches Hg (1022.4 mb)
[Sea-level pressure: 1023.5 mb]
Winds: from the SE (140 degrees) at 18 MPH (16 knots; 8.2 m/s)
gusting to 25 MPH (22 knots; 11.3 m/s)
Visibility: 10 or more miles (16+ km)
Ceiling: at least 12,000 feet AGL
Clouds: sky clear below 12,000 feet AGL
Weather:
SOME DATA ABOVE MAY BE INACCURATE!!!
"$" is an indication the sensor requires maintenance

METAR text: KGRB 220853Z AUTO 14012KT 10SM OVC100 M04/M08 A3022 RMK AO2 SLP244 60002 T10441083 58033 $
Conditions at: KGRB (ASHWAUBENON , WI, US) observed 0853 UTC 22 January 2019
Temperature: -4.4°C (24°F)
Dewpoint: -8.3°C (17°F) [RH = 74%]
Pressure (altimeter): 30.22 inches Hg (1023.5 mb)
[Sea-level pressure: 1024.4 mb]
Winds: from the SE (140 degrees) at 14 MPH (12 knots; 6.2 m/s)
Visibility: 10 or more miles (16+ km)
Ceiling: 10000 feet AGL
Clouds: overcast cloud deck at 10000 feet AGL
Weather:
SOME DATA ABOVE MAY BE INACCURATE!!!
"$" is an indication the sensor requires maintenance

METAR text: KGRB 220753Z AUTO 14009KT 10SM SCT070 OVC100 M05/M08 A3028 RMK AO2 SNE32 SLP265 P0002 T10501083 $
Conditions at: KGRB (ASHWAUBENON , WI, US) observed 0753 UTC 22 January 2019
Temperature: -5.0°C (23°F)
Dewpoint: -8.3°C (17°F) [RH = 78%]
Pressure (altimeter): 30.28 inches Hg (1025.5 mb)
[Sea-level pressure: 1026.5 mb]
Winds: from the SE (140 degrees) at 10 MPH (9 knots; 4.6 m/s)
Visibility: 10 or more miles (16+ km)
Ceiling: 10000 feet AGL
Clouds: scattered clouds at 7000 feet AGL
overcast cloud deck at 10000 feet AGL
Weather:
SOME DATA ABOVE MAY BE INACCURATE!!!
"$" is an indication the sensor requires maintenance

Forecast for: KGRB (ASHWAUBENON , WI, US)
Text: KGRB 231731Z 2318/2418 33010KT 1SM -SN BKN018 OVC025
Forecast period: 1800 to 2000 UTC 23 January 2019
Forecast type: FROM: standard forecast or significant change
Winds: from the NNW (330 degrees) at 12 MPH (10 knots; 5.1 m/s)
Visibility: 1.00 miles (1.61 km)
Ceiling: 1800 feet AGL
Clouds: broken clouds at 1800 feet AGL
overcast cloud deck at 2500 feet AGL
Weather: -SN  (light snow)
Text: TEMPO 2318/2320 2SM -SN OVC025
Forecast period: 1800 to 2000 UTC 23 January 2019
Forecast type: TEMPORARY: The following changes expected for less than half the time period
Visibility: 2.00 miles (3.22 km)
Ceiling: 2500 feet AGL
Clouds: overcast cloud deck at 2500 feet AGL
Weather: -SN  (light snow)
Text: FM232000 31010KT 3SM -SHSN BKN025 OVC040
Forecast period: 2000 to 2200 UTC 23 January 2019
Forecast type: FROM: standard forecast or significant change
Winds: from the NW (310 degrees) at 12 MPH (10 knots; 5.1 m/s)
Visibility: 3 miles (5 km)
Ceiling: 2500 feet AGL
Clouds: broken clouds at 2500 feet AGL
overcast cloud deck at 4000 feet AGL
Weather: -SHSN  (light snow showers)
Text: FM232200 28007KT P6SM BKN035 BKN090
Forecast period: 2200 UTC 23 January 2019 to 1300 UTC 24 January 2019
Forecast type: FROM: standard forecast or significant change
Winds: from the W (280 degrees) at 8 MPH (7 knots; 3.6 m/s)
Visibility: 6 or more miles 10+ km)
Ceiling: 3500 feet AGL
Clouds: broken clouds at 3500 feet AGL
broken clouds at 9000 feet AGL
Weather: no significant weather forecast for this period
Text: FM241300 27008KT 5SM -SHSN OVC025
Forecast period: 1300 to 1500 UTC 24 January 2019
Forecast type: FROM: standard forecast or significant change
Winds: from the W (270 degrees) at 9 MPH (8 knots; 4.1 m/s)
Visibility: 5 miles (8 km)
Ceiling: 2500 feet AGL
Clouds: overcast cloud deck at 2500 feet AGL
Weather: -SHSN  (light snow showers)
Text: FM241500 28012G19KT 2SM -SHSN SCT012 OVC020
Forecast period: 1500 to 1800 UTC 24 January 2019
Forecast type: FROM: standard forecast or significant change
Winds: from the W (280 degrees) at 14 MPH (12 knots; 6.2 m/s)
gusting to 22 MPH (19 knots; 9.8 m/s)
Visibility: 2.00 miles (3.22 km)
Ceiling: 2000 feet AGL
Clouds: scattered clouds at 1200 feet AGL
overcast cloud deck at 2000 feet AGL
Weather: -SHSN  (light snow showers)